Terminal Aerodrome Forecast
Issued by NWS Medford, OR

Home | Current Version | Previous Version | Text Only | Print | Product List | Glossary On
Versions: 1 2 3 4 5 6 7 8 9 10 11 12 13
663
FTUS46 KMFR 281738
TAFMFR
TAF
KMFR 281738Z 2818/2918 32005KT P6SM SKC
     FM282300 32010G15KT P6SM SKC
     FM290300 VRB03KT P6SM SKC=

USA.gov is the U.S. government's official web portal to all federal, state and local government web resources and services.